Terminal Aerodrome Forecast
Issued by NWS St Louis, MO

Home | Current Version | Previous Version | Text Only | Print | Product List | Glossary On
Versions: 1 2 3 4 5 6 7 8 9 10 11 12 13 14 15 16 17 18 19 20 21 22 23 24 25 26 27 28 29 30 31 32
000
FTUS43 KLSX 290100 AAA
TAFSTL
TAF AMD
KSTL 290106Z 2901/3006 17008KT P6SM VCTS SCT050CB BKN100
      TEMPO 2901/2902 1/2SM +TSRA OVC015CB
     FM290400 23007KT P6SM SCT050 BKN100
     FM290900 28007KT P6SM SKC
     FM291600 30011KT P6SM SCT040=

USA.gov is the U.S. government's official web portal to all federal, state and local government web resources and services.